Time;durP1;ratioP1;P1;durP2;ratioP2;P2;SDS_P1;SDS_P2;PMS_P1;PMS_P2;Temp;Humidity;BMP_temperature;BMP_pressure;BME280_temperature;BME280_humidity;BME280_pressure;Samples;Min_cycle;Max_cycle;Signal;HPM_P1;HPM_P2
2023/10/26 00:00:24;;;;;;;9.05;6.32;;;;;;;10.54;93.98;96477.91;5084077;28;20128;-83
2023/10/26 00:02:49;;;;;;;8.85;5.95;;;;;;;10.73;92.64;96480.34;5081445;28;20028;-82
2023/10/26 00:05:14;;;;;;;8.68;6.25;;;;;;;10.53;94.47;96486.19;5073561;28;20024;-83
2023/10/26 00:07:40;;;;;;;6.85;6.03;;;;;;;10.66;93.88;96495.97;5052472;28;20028;-83
2023/10/26 00:10:06;;;;;;;7.10;6.13;;;;;;;10.70;93.00;96496.19;5086304;28;20032;-83
2023/10/26 00:12:32;;;;;;;7.53;5.85;;;;;;;10.78;93.17;96504.22;5083194;28;20118;-82
2023/10/26 00:14:58;;;;;;;6.97;4.72;;;;;;;10.57;94.28;96497.06;5088149;28;20111;-82
2023/10/26 00:17:24;;;;;;;7.30;5.22;;;;;;;10.31;97.45;96494.22;5103170;28;20028;-81
2023/10/26 00:19:49;;;;;;;6.45;5.80;;;;;;;10.57;94.70;96494.38;5088621;28;20380;-81
2023/10/26 00:22:14;;;;;;;7.65;6.85;;;;;;;10.30;98.08;96497.97;5075744;28;20123;-81
2023/10/26 00:24:40;;;;;;;7.47;5.82;;;;;;;10.43;96.26;96508.59;5084769;28;20039;-81
2023/10/26 00:27:05;;;;;;;6.55;5.63;;;;;;;10.43;95.78;96505.91;5082517;28;20042;-82
2023/10/26 00:29:30;;;;;;;6.18;4.78;;;;;;;10.57;94.07;96503.19;5058268;28;20039;-81
2023/10/26 00:31:56;;;;;;;5.35;4.85;;;;;;;10.27;97.55;96507.38;5052441;28;20446;-82
2023/10/26 00:34:21;;;;;;;5.18;4.63;;;;;;;10.29;97.94;96507.84;5070223;28;20059;-81
2023/10/26 00:36:47;;;;;;;4.97;4.22;;;;;;;10.24;98.89;96518.63;5085143;28;20071;-81
2023/10/26 00:39:13;;;;;;;8.35;6.88;;;;;;;10.12;99.68;96504.25;5082629;28;20507;-81
2023/10/26 00:41:38;;;;;;;9.75;8.15;;;;;;;10.27;99.43;96510.03;5071580;28;20480;-82
2023/10/26 00:44:04;;;;;;;5.47;4.53;;;;;;;10.46;96.20;96507.94;5069631;28;20040;-82
2023/10/26 00:46:30;;;;;;;10.43;8.07;;;;;;;10.35;96.81;96517.28;5085857;28;20028;-82
2023/10/26 00:48:56;;;;;;;6.68;5.90;;;;;;;10.49;95.68;96517.22;5072610;28;20081;-81
2023/10/26 00:51:23;;;;;;;5.03;4.18;;;;;;;10.43;96.33;96515.78;5082275;28;20020;-82
2023/10/26 00:53:49;;;;;;;7.63;6.03;;;;;;;10.34;95.51;96505.06;5064337;28;20036;-82
2023/10/26 00:56:20;;;;;;;11.50;7.50;;;;;;;10.47;95.88;96514.88;5066796;28;20044;-82
2023/10/26 00:58:46;;;;;;;5.38;3.28;;;;;;;10.62;93.77;96511.03;5077578;28;20078;-82
2023/10/26 01:01:12;;;;;;;4.28;3.88;;;;;;;10.68;93.47;96522.38;5082711;28;20457;-82
2023/10/26 01:03:39;;;;;;;7.10;4.30;;;;;;;10.63;94.07;96520.63;5067682;28;20127;-83
2023/10/26 01:06:04;;;;;;;4.68;4.22;;;;;;;10.70;93.70;96530.84;5069709;28;20040;-83
2023/10/26 01:08:30;;;;;;;4.32;3.67;;;;;;;10.76;92.49;96522.41;5072611;28;20024;-83
2023/10/26 01:10:57;;;;;;;7.28;6.47;;;;;;;10.59;93.99;96514.31;5054531;28;20038;-83
2023/10/26 01:13:23;;;;;;;7.82;6.55;;;;;;;10.60;94.13;96529.22;5084903;28;20035;-83
2023/10/26 01:15:48;;;;;;;6.30;4.30;;;;;;;10.77;93.18;96529.31;5068263;28;20032;-82
2023/10/26 01:18:15;;;;;;;4.47;3.67;;;;;;;10.87;92.16;96528.28;5081404;28;20090;-82
2023/10/26 01:20:42;;;;;;;4.32;3.92;;;;;;;10.84;92.56;96531.56;5090493;28;20048;-82
2023/10/26 01:23:07;;;;;;;5.38;4.88;;;;;;;10.82;92.36;96529.19;5071793;28;20085;-82
2023/10/26 01:25:33;;;;;;;4.60;3.97;;;;;;;10.79;92.47;96516.47;5072906;28;20119;-82
2023/10/26 01:27:58;;;;;;;5.72;4.55;;;;;;;10.73;93.04;96523.03;5052841;28;20162;-82
2023/10/26 01:30:24;;;;;;;5.07;4.57;;;;;;;10.69;93.12;96523.94;5086523;28;20028;-82
2023/10/26 01:32:49;;;;;;;4.65;4.22;;;;;;;10.73;92.93;96531.03;5070090;28;20041;-82
2023/10/26 01:35:15;;;;;;;6.40;4.95;;;;;;;10.62;92.95;96519.03;5063324;28;20426;-82
2023/10/26 01:37:40;;;;;;;6.25;5.15;;;;;;;10.73;92.96;96532.91;5090892;28;20127;-82
2023/10/26 01:40:10;;;;;;;6.13;5.18;;;;;;;10.65;93.26;96530.97;5073653;28;20029;-82
2023/10/26 01:42:35;;;;;;;6.80;4.95;;;;;;;10.74;93.32;96543.28;5084229;28;20063;-82
2023/10/26 01:45:01;;;;;;;5.47;4.93;;;;;;;10.75;93.01;96546.72;5107795;28;20519;-82
2023/10/26 01:47:27;;;;;;;5.07;4.22;;;;;;;10.77;93.17;96547.22;5088908;28;20024;-82
2023/10/26 01:49:52;;;;;;;5.60;5.05;;;;;;;10.76;92.46;96543.75;5090188;28;20028;-81
2023/10/26 01:52:18;;;;;;;5.65;5.15;;;;;;;10.74;92.41;96531.81;5078965;28;20483;-82
2023/10/26 01:54:43;;;;;;;5.93;4.63;;;;;;;10.69;92.95;96535.41;5085185;28;20588;-81
2023/10/26 01:57:08;;;;;;;6.07;5.35;;;;;;;10.79;92.93;96537.03;5065542;28;20521;-81
2023/10/26 01:59:34;;;;;;;5.30;4.80;;;;;;;10.66;93.33;96527.22;5078681;28;20031;-82
2023/10/26 02:01:59;;;;;;;8.15;5.25;;;;;;;10.69;93.22;96531.94;5082792;28;20058;-82
2023/10/26 02:04:24;;;;;;;6.55;4.90;;;;;;;10.62;93.39;96532.38;5081894;28;20024;-82
2023/10/26 02:06:50;;;;;;;6.25;5.05;;;;;;;10.54;93.26;96522.44;5074425;28;20078;-82
2023/10/26 02:09:15;;;;;;;11.10;5.78;;;;;;;10.40;93.88;96517.19;5075796;28;20460;-82
2023/10/26 02:11:40;;;;;;;6.53;5.22;;;;;;;10.65;93.12;96541.66;5062418;28;20090;-82
2023/10/26 02:14:06;;;;;;;6.53;5.72;;;;;;;10.70;92.97;96538.88;5069418;28;20028;-82
2023/10/26 02:16:31;;;;;;;5.53;5.00;;;;;;;10.62;92.90;96542.25;5092389;28;20038;-82
2023/10/26 02:18:57;;;;;;;8.90;5.75;;;;;;;10.63;92.97;96541.16;5087943;28;20056;-82
2023/10/26 02:21:22;;;;;;;7.63;5.25;;;;;;;10.68;92.71;96544.47;5086577;28;20467;-81
2023/10/26 02:23:48;;;;;;;5.93;5.32;;;;;;;10.53;93.02;96532.31;5077517;28;20029;-82
2023/10/26 02:26:13;;;;;;;5.65;4.55;;;;;;;10.55;92.67;96540.00;5093435;28;20020;-81
2023/10/26 02:28:39;;;;;;;6.97;5.55;;;;;;;10.58;93.04;96547.41;5070514;28;20115;-81
2023/10/26 02:31:04;;;;;;;5.40;4.80;;;;;;;10.67;92.93;96558.13;5087691;28;20032;-81
2023/10/26 02:33:30;;;;;;;8.52;4.72;;;;;;;10.63;92.71;96559.84;5077751;28;20035;-81
2023/10/26 02:35:55;;;;;;;5.97;4.90;;;;;;;10.62;92.80;96561.72;5085984;28;20043;-81
2023/10/26 02:38:20;;;;;;;5.20;4.70;;;;;;;10.64;92.36;96556.84;5079758;28;20024;-81
2023/10/26 02:40:46;;;;;;;6.63;5.15;;;;;;;10.53;92.74;96559.00;5076756;28;20387;-81
2023/10/26 02:43:11;;;;;;;5.43;4.22;;;;;;;10.57;92.81;96559.97;5061733;28;20036;-81
2023/10/26 02:45:36;;;;;;;5.93;4.35;;;;;;;10.55;92.74;96553.34;5092071;28;20114;-82
2023/10/26 02:48:05;;;;;;;5.57;4.20;;;;;;;10.52;92.82;96570.78;5076408;28;20031;-82
2023/10/26 02:50:30;;;;;;;4.78;4.10;;;;;;;10.47;92.77;96548.75;5074292;28;20059;-83
2023/10/26 02:52:55;;;;;;;6.07;4.70;;;;;;;10.54;92.47;96559.78;5070955;28;20059;-83
2023/10/26 02:55:21;;;;;;;4.93;4.10;;;;;;;10.48;92.94;96567.09;5071599;28;20373;-82
2023/10/26 02:57:48;;;;;;;8.23;4.07;;;;;;;10.46;93.05;96563.97;5093582;28;20069;-83
2023/10/26 03:00:14;;;;;;;4.22;3.63;;;;;;;10.48;92.92;96566.34;5085820;28;20020;-83
2023/10/26 03:02:40;;;;;;;3.65;3.35;;;;;;;10.51;93.09;96577.19;5081519;28;20039;-83
2023/10/26 03:05:05;;;;;;;3.70;3.35;;;;;;;10.41;93.36;96571.31;5070165;28;20036;-82
2023/10/26 03:07:31;;;;;;;4.60;3.35;;;;;;;10.42;93.04;96571.00;5080837;28;20035;-83
2023/10/26 03:09:56;;;;;;;3.40;2.80;;;;;;;10.49;93.12;96590.03;5093148;28;20032;-83
2023/10/26 03:12:22;;;;;;;4.03;3.08;;;;;;;10.41;93.16;96581.97;5087015;28;20186;-82
2023/10/26 03:14:47;;;;;;;4.32;2.90;;;;;;;10.49;93.01;96582.03;5074299;28;20034;-82
2023/10/26 03:17:15;;;;;;;2.50;2.30;;;;;;;10.51;93.28;96595.84;5072559;28;20061;-82
2023/10/26 03:19:44;;;;;;;2.50;1.95;;;;;;;10.42;93.13;96587.00;5073401;28;20484;-82
2023/10/26 03:22:10;;;;;;;3.13;1.92;;;;;;;10.24;93.21;96563.19;5098999;27;20567;-82
2023/10/26 03:24:36;;;;;;;7.00;2.15;;;;;;;10.54;93.34;96589.13;5072702;28;20028;-82
2023/10/26 03:27:01;;;;;;;2.20;1.90;;;;;;;10.37;93.60;96589.78;5087264;28;20039;-81
2023/10/26 03:29:26;;;;;;;2.53;2.33;;;;;;;10.40;93.52;96599.84;5058841;28;20081;-82
2023/10/26 03:31:52;;;;;;;2.55;2.20;;;;;;;10.38;93.69;96610.03;5054066;28;20023;-82
2023/10/26 03:34:17;;;;;;;1.83;1.73;;;;;;;10.43;93.03;96593.13;5073314;28;20071;-83
2023/10/26 03:36:42;;;;;;;2.15;1.95;;;;;;;10.42;92.98;96595.00;5090109;28;20035;-82
2023/10/26 03:39:08;;;;;;;2.83;2.63;;;;;;;10.52;93.07;96601.97;5096828;28;20496;-81
2023/10/26 03:41:33;;;;;;;3.28;2.97;;;;;;;10.39;93.62;96600.94;5086705;28;20016;-82
2023/10/26 03:43:59;;;;;;;4.63;4.10;;;;;;;10.33;93.40;96601.38;5086106;28;20387;-82
2023/10/26 03:46:24;;;;;;;4.28;3.80;;;;;;;10.46;93.13;96611.97;5076894;28;20028;-82
2023/10/26 03:48:50;;;;;;;4.35;3.95;;;;;;;10.40;93.56;96612.38;5066972;28;20036;-81
2023/10/26 03:51:16;;;;;;;5.68;4.20;;;;;;;10.37;93.31;96605.00;5080414;28;20043;-82
2023/10/26 03:53:41;;;;;;;9.68;6.70;;;;;;;10.38;93.22;96610.03;5085202;28;20444;-82
2023/10/26 03:56:06;;;;;;;7.22;5.28;;;;;;;10.32;93.53;96589.91;5087644;28;20031;-82
2023/10/26 03:58:32;;;;;;;6.88;5.43;;;;;;;10.41;93.23;96597.97;5081150;28;20385;-82
2023/10/26 04:00:57;;;;;;;7.10;5.38;;;;;;;10.48;92.86;96601.78;5056759;28;21064;-82
2023/10/26 04:03:24;;;;;;;9.02;6.03;;;;;;;10.41;92.94;96592.63;5067660;28;20160;-82
2023/10/26 04:05:49;;;;;;;9.73;5.88;;;;;;;10.42;92.80;96604.88;5088243;28;20032;-82
2023/10/26 04:08:14;;;;;;;9.27;6.28;;;;;;;10.36;92.21;96604.19;5068577;28;20062;-82
2023/10/26 04:10:41;;;;;;;8.18;5.88;;;;;;;10.32;92.82;96619.22;5072093;28;20024;-82
2023/10/26 04:13:07;;;;;;;8.55;6.57;;;;;;;10.38;92.59;96617.22;5079083;28;20047;-82
2023/10/26 04:15:32;;;;;;;8.55;6.25;;;;;;;10.33;92.60;96598.69;5099054;28;20031;-82
2023/10/26 04:17:58;;;;;;;11.38;6.40;;;;;;;10.22;93.36;96614.09;5071487;28;20094;-82
2023/10/26 04:20:24;;;;;;;10.93;6.93;;;;;;;10.21;93.38;96615.22;5069124;28;20119;-82
2023/10/26 04:22:50;;;;;;;10.10;7.28;;;;;;;10.12;93.10;96614.34;5058985;28;20119;-82
2023/10/26 04:25:15;;;;;;;8.65;6.72;;;;;;;10.26;93.26;96609.78;5084898;28;20024;-82
2023/10/26 04:27:40;;;;;;;10.05;6.93;;;;;;;10.35;92.50;96609.84;5083858;28;20077;-81
2023/10/26 04:30:07;;;;;;;8.15;6.78;;;;;;;10.20;92.52;96600.28;5088019;28;20039;-81
2023/10/26 04:32:32;;;;;;;7.40;5.60;;;;;;;10.34;92.49;96614.38;5066127;28;20033;-82
2023/10/26 04:34:58;;;;;;;8.02;6.20;;;;;;;10.32;92.17;96615.78;5085269;28;20101;-81
2023/10/26 04:37:24;;;;;;;8.07;6.20;;;;;;;10.24;92.46;96617.25;5100669;27;20046;-81
2023/10/26 04:39:50;;;;;;;9.93;6.78;;;;;;;10.19;92.71;96611.25;5075935;28;20031;-82
2023/10/26 04:42:25;;;;;;;6.88;6.10;;;;;;;10.26;92.54;96619.66;5073236;28;20073;-82
2023/10/26 04:44:50;;;;;;;8.37;6.27;;;;;;;10.24;92.59;96616.50;5072499;28;20449;-81
2023/10/26 04:47:16;;;;;;;8.20;6.25;;;;;;;10.20;91.97;96618.94;5101174;28;20273;-83
2023/10/26 04:49:41;;;;;;;8.43;5.70;;;;;;;10.16;92.48;96635.84;5066956;28;20032;-81
2023/10/26 04:52:08;;;;;;;8.13;5.72;;;;;;;10.08;92.14;96626.66;5052094;28;20027;-82
2023/10/26 04:54:33;;;;;;;7.82;5.03;;;;;;;10.14;92.32;96636.16;5091251;28;20266;-82
2023/10/26 04:56:59;;;;;;;6.28;5.32;;;;;;;10.19;91.79;96627.25;5088158;28;20048;-82
2023/10/26 04:59:24;;;;;;;10.32;5.18;;;;;;;10.12;91.82;96630.34;5085698;28;20115;-82
2023/10/26 05:01:49;;;;;;;7.97;5.70;;;;;;;10.04;92.00;96617.69;5091997;28;20090;-82
2023/10/26 05:04:15;;;;;;;5.85;5.05;;;;;;;9.86;93.57;96629.25;5054327;28;20036;-82
2023/10/26 05:06:40;;;;;;;6.72;5.43;;;;;;;10.06;92.67;96620.06;5087176;28;20040;-82
2023/10/26 05:09:05;;;;;;;7.90;4.93;;;;;;;10.13;92.18;96629.25;5086032;28;20031;-82
2023/10/26 05:11:32;;;;;;;6.43;5.05;;;;;;;10.09;92.01;96630.13;5071216;28;20039;-82
2023/10/26 05:13:57;;;;;;;6.30;4.95;;;;;;;10.12;91.64;96624.22;5045754;28;20031;-82
2023/10/26 05:16:23;;;;;;;4.95;4.40;;;;;;;10.19;91.44;96641.38;5082898;28;20051;-82
2023/10/26 05:18:48;;;;;;;7.40;4.78;;;;;;;9.90;91.31;96608.91;5083641;28;20047;-82
2023/10/26 05:21:13;;;;;;;4.95;3.83;;;;;;;10.06;91.37;96634.16;5082466;28;20028;-82
2023/10/26 05:23:39;;;;;;;5.47;4.38;;;;;;;10.15;91.43;96635.06;5079778;28;20028;-82
2023/10/26 05:26:05;;;;;;;7.80;4.57;;;;;;;10.09;91.54;96641.56;5072212;28;20028;-82
2023/10/26 05:28:31;;;;;;;6.70;5.20;;;;;;;10.22;91.26;96635.44;5067348;28;20476;-82
2023/10/26 05:30:56;;;;;;;4.70;3.75;;;;;;;10.30;90.69;96645.41;5066137;28;20029;-82
2023/10/26 05:33:22;;;;;;;5.70;3.95;;;;;;;10.25;90.63;96642.84;5090842;28;20121;-82
2023/10/26 05:35:47;;;;;;;4.72;4.18;;;;;;;10.24;90.25;96637.81;5071026;28;20032;-82
2023/10/26 05:38:15;;;;;;;5.65;4.82;;;;;;;10.06;90.89;96650.16;5071347;28;20032;-82
2023/10/26 05:40:48;;;;;;;5.68;4.60;;;;;;;10.17;90.58;96651.56;5067727;28;20036;-82
2023/10/26 05:43:14;;;;;;;5.55;4.60;;;;;;;10.20;90.40;96652.84;5075592;28;20024;-82
2023/10/26 05:45:39;;;;;;;9.10;5.40;;;;;;;10.16;90.57;96652.63;5082726;28;20032;-82
2023/10/26 05:48:05;;;;;;;6.05;4.60;;;;;;;10.26;90.42;96663.09;5081956;28;20046;-82
2023/10/26 05:50:30;;;;;;;10.10;5.20;;;;;;;10.12;90.69;96649.00;5052919;28;20111;-82
2023/10/26 05:52:56;;;;;;;6.75;5.07;;;;;;;10.09;90.56;96652.22;5077669;28;20033;-82
2023/10/26 05:55:23;;;;;;;7.22;5.35;;;;;;;10.13;91.06;96652.44;5049267;28;20020;-82
2023/10/26 05:57:48;;;;;;;7.97;5.47;;;;;;;10.10;90.90;96650.34;5080224;28;20768;-82
2023/10/26 06:00:15;;;;;;;8.50;5.50;;;;;;;10.14;90.28;96662.81;5076936;28;20171;-81
2023/10/26 06:02:40;;;;;;;6.50;5.40;;;;;;;9.95;89.94;96651.47;5073622;28;20588;-82
2023/10/26 06:05:07;;;;;;;9.75;5.47;;;;;;;10.04;90.75;96657.66;5049395;28;20506;-82
2023/10/26 06:07:32;;;;;;;13.57;6.07;;;;;;;10.07;90.56;96654.38;5065699;28;20025;-82
2023/10/26 06:09:57;;;;;;;7.38;5.78;;;;;;;10.09;90.44;96662.09;5082427;28;20036;-82
2023/10/26 06:12:22;;;;;;;8.23;5.40;;;;;;;10.09;90.15;96662.88;5083299;28;20032;-82
2023/10/26 06:14:48;;;;;;;8.40;5.10;;;;;;;10.13;90.03;96671.09;5072033;28;20405;-82
2023/10/26 06:17:13;;;;;;;9.82;5.95;;;;;;;10.10;89.99;96664.47;5087313;28;20108;-82
2023/10/26 06:19:39;;;;;;;10.02;6.10;;;;;;;9.98;90.21;96674.81;5082054;28;20028;-82
2023/10/26 06:22:04;;;;;;;9.30;5.80;;;;;;;9.87;91.08;96676.13;5061791;28;20119;-82
2023/10/26 06:24:30;;;;;;;9.88;5.68;;;;;;;9.96;90.16;96668.25;5077540;28;20468;-82
2023/10/26 06:26:55;;;;;;;8.30;5.53;;;;;;;9.97;89.96;96669.81;5063230;28;20051;-82
2023/10/26 06:29:20;;;;;;;8.30;5.55;;;;;;;10.08;89.59;96679.97;5057925;28;20024;-82
2023/10/26 06:31:46;;;;;;;5.90;5.25;;;;;;;10.10;89.87;96679.66;5073108;28;20123;-82
2023/10/26 06:34:11;;;;;;;6.97;4.60;;;;;;;9.97;89.69;96669.81;5054446;28;20055;-82
2023/10/26 06:36:37;;;;;;;7.45;5.47;;;;;;;10.03;89.55;96685.38;5071578;28;20031;-82
2023/10/26 06:39:02;;;;;;;6.53;5.18;;;;;;;9.95;89.96;96682.63;5083887;28;20482;-82
2023/10/26 06:41:28;;;;;;;6.40;4.68;;;;;;;10.01;89.84;96684.09;5098204;28;20028;-81
2023/10/26 06:43:53;;;;;;;8.02;6.05;;;;;;;9.89;90.23;96681.16;5069970;28;20056;-82
2023/10/26 06:46:19;;;;;;;7.80;5.55;;;;;;;9.96;90.27;96689.56;5055482;28;20036;-82
2023/10/26 06:48:44;;;;;;;4.65;4.22;;;;;;;9.93;89.99;96690.13;5067038;28;20027;-82
2023/10/26 06:51:10;;;;;;;8.10;5.53;;;;;;;9.91;89.94;96681.66;5082134;28;20334;-81
2023/10/26 06:53:36;;;;;;;6.60;5.05;;;;;;;9.92;89.47;96681.34;5067872;28;20035;-82
2023/10/26 06:56:01;;;;;;;9.80;6.13;;;;;;;9.98;89.32;96687.38;5075242;28;20505;-82
2023/10/26 06:58:27;;;;;;;7.88;5.35;;;;;;;9.99;89.65;96695.06;5074709;28;20033;-81
2023/10/26 07:00:52;;;;;;;7.13;5.28;;;;;;;9.96;89.61;96695.66;5084007;28;20042;-82
2023/10/26 07:03:20;;;;;;;4.82;4.32;;;;;;;10.00;89.34;96702.00;5066954;28;20119;-82
2023/10/26 07:05:47;;;;;;;6.40;5.32;;;;;;;9.95;89.42;96693.28;5080846;28;21966;-84
2023/10/26 07:08:13;;;;;;;7.65;5.10;;;;;;;9.99;89.79;96703.06;5073922;28;20039;-82
2023/10/26 07:10:39;;;;;;;6.47;4.93;;;;;;;9.93;90.06;96696.25;5064398;28;20099;-81
2023/10/26 07:13:07;;;;;;;8.32;4.88;;;;;;;9.95;89.56;96690.63;5075753;28;20047;-81
2023/10/26 07:15:34;;;;;;;5.97;5.00;;;;;;;10.00;89.43;96691.34;5082363;28;20036;-81
2023/10/26 07:18:00;;;;;;;6.22;4.32;;;;;;;9.92;89.94;96685.88;5079740;28;20085;-82
2023/10/26 07:20:25;;;;;;;6.00;4.80;;;;;;;9.94;90.08;96689.84;5073034;28;20032;-81
2023/10/26 07:22:52;;;;;;;6.30;4.85;;;;;;;10.03;90.19;96698.72;5087497;28;20483;-82
2023/10/26 07:25:17;;;;;;;7.13;5.13;;;;;;;9.97;90.51;96707.91;5072558;28;20032;-82
2023/10/26 07:27:43;;;;;;;7.13;5.20;;;;;;;9.92;90.23;96683.22;5085637;28;20084;-81
2023/10/26 07:30:09;;;;;;;6.82;4.93;;;;;;;9.95;90.80;96703.94;5089990;28;20066;-82
2023/10/26 07:32:34;;;;;;;5.75;4.80;;;;;;;9.94;90.77;96703.16;5084527;28;20150;-82
2023/10/26 07:35:01;;;;;;;6.72;5.05;;;;;;;9.94;90.47;96691.72;5083455;28;20071;-82
2023/10/26 07:37:26;;;;;;;7.30;5.20;;;;;;;10.04;90.59;96700.31;5086669;28;20031;-83
2023/10/26 07:39:52;;;;;;;6.88;5.05;;;;;;;10.00;90.64;96693.19;5090456;28;20153;-82
2023/10/26 07:42:17;;;;;;;6.90;4.93;;;;;;;10.06;90.31;96692.81;5077861;28;20050;-83
2023/10/26 07:44:42;;;;;;;7.07;5.10;;;;;;;10.12;90.26;96707.63;5072478;28;20037;-83
2023/10/26 07:47:08;;;;;;;5.22;4.35;;;;;;;10.11;89.87;96702.59;5096104;28;20036;-83
2023/10/26 07:49:33;;;;;;;7.20;5.00;;;;;;;10.05;90.42;96704.53;5072856;28;20035;-82
2023/10/26 07:51:59;;;;;;;5.45;4.35;;;;;;;9.98;90.57;96701.47;5070428;28;20083;-82
2023/10/26 07:54:24;;;;;;;8.70;4.72;;;;;;;10.16;90.06;96719.28;5082253;28;20024;-83
2023/10/26 07:56:50;;;;;;;7.60;5.28;;;;;;;10.01;90.68;96706.22;5085184;28;20123;-82
2023/10/26 07:59:15;;;;;;;9.32;5.47;;;;;;;10.21;89.99;96711.19;5084265;28;20085;-82
2023/10/26 08:01:41;;;;;;;5.55;4.55;;;;;;;10.17;89.95;96709.41;5078094;28;20534;-82
2023/10/26 08:04:06;;;;;;;7.95;4.82;;;;;;;10.19;90.14;96708.03;5060878;28;20032;-81
2023/10/26 08:06:31;;;;;;;8.50;5.15;;;;;;;10.18;90.09;96705.63;5064299;28;20089;-82
2023/10/26 08:08:58;;;;;;;5.57;4.47;;;;;;;10.26;89.43;96710.28;5084406;28;20054;-82
2023/10/26 08:11:24;;;;;;;7.43;4.70;;;;;;;10.22;89.32;96722.66;5063882;28;20032;-82
2023/10/26 08:13:50;;;;;;;6.10;4.38;;;;;;;10.20;90.00;96716.81;5051746;28;20039;-83
2023/10/26 08:16:15;;;;;;;5.47;4.85;;;;;;;10.23;89.44;96718.88;5066674;28;20111;-82
2023/10/26 08:18:42;;;;;;;6.53;4.82;;;;;;;10.21;89.78;96719.19;5082403;28;20464;-82
2023/10/26 08:21:09;;;;;;;6.47;5.00;;;;;;;10.17;89.53;96707.53;5086628;28;20098;-82
2023/10/26 08:23:34;;;;;;;5.57;4.28;;;;;;;10.36;89.15;96724.19;5066772;28;20365;-82
2023/10/26 08:26:07;;;;;;;6.20;4.15;;;;;;;10.29;89.72;96720.34;5088963;28;20057;-83
2023/10/26 08:28:34;;;;;;;5.25;4.60;;;;;;;10.22;89.92;96715.41;5091284;28;20028;-83
2023/10/26 08:31:01;;;;;;;6.03;3.97;;;;;;;10.31;89.29;96723.53;5091397;28;20034;-82
2023/10/26 08:33:30;;;;;;;5.63;4.38;;;;;;;10.28;89.38;96724.09;5089023;28;20036;-82
2023/10/26 08:35:56;;;;;;;4.78;3.83;;;;;;;10.23;89.63;96719.66;5091238;28;20092;-83
2023/10/26 08:38:22;;;;;;;4.78;4.18;;;;;;;10.31;89.54;96720.84;5093402;28;20038;-83
2023/10/26 08:40:52;;;;;;;4.90;3.28;;;;;;;10.26;89.39;96711.09;5085401;28;20495;-82
2023/10/26 08:43:19;;;;;;;4.25;3.70;;;;;;;10.31;89.62;96718.97;5083240;28;20031;-82
2023/10/26 08:45:48;;;;;;;4.38;3.78;;;;;;;10.27;89.51;96712.66;5093616;28;20106;-83
2023/10/26 08:48:18;;;;;;;5.80;4.00;;;;;;;10.30;89.66;96725.41;5093383;28;20070;-82
2023/10/26 08:50:45;;;;;;;4.82;3.85;;;;;;;10.33;89.36;96732.78;5073373;28;20046;-82
2023/10/26 08:53:11;;;;;;;4.13;3.53;;;;;;;10.28;89.68;96732.91;5075422;28;20415;-83
2023/10/26 08:55:39;;;;;;;4.82;3.65;;;;;;;10.42;89.12;96736.34;5079562;28;20085;-83
2023/10/26 08:58:05;;;;;;;4.18;3.80;;;;;;;10.34;89.42;96736.25;5085652;28;20029;-83
2023/10/26 09:00:30;;;;;;;6.03;4.00;;;;;;;10.37;89.67;96739.13;5081368;28;20028;-82
2023/10/26 09:02:56;;;;;;;4.28;3.83;;;;;;;10.38;89.32;96743.34;5101020;28;20035;-82
2023/10/26 09:05:22;;;;;;;7.90;4.95;;;;;;;10.38;89.75;96735.34;5094339;28;20396;-82
2023/10/26 09:07:47;;;;;;;5.38;3.75;;;;;;;10.39;89.81;96733.47;5093138;28;20024;-82
2023/10/26 09:10:37;;;;;;;5.55;4.18;;;;;;;10.39;89.80;96731.63;5073743;28;20464;-82
2023/10/26 09:13:05;;;;;;;5.93;3.33;;;;;;;10.41;89.50;96733.97;5092465;28;20039;-82
2023/10/26 09:15:47;;;;;;;3.60;3.30;;;;;;;10.42;89.51;96731.00;5086240;28;20566;-82
2023/10/26 09:18:13;;;;;;;4.75;3.10;;;;;;;10.46;89.63;96736.53;5095435;28;20037;-82
2023/10/26 09:20:39;;;;;;;5.55;3.88;;;;;;;10.46;89.57;96739.97;5091977;28;20040;-82
2023/10/26 09:23:05;;;;;;;5.07;3.47;;;;;;;10.46;89.39;96729.31;5091784;28;20024;-82
2023/10/26 09:25:30;;;;;;;4.85;3.45;;;;;;;10.21;89.31;96703.19;5093288;28;20069;-81
2023/10/26 09:28:05;;;;;;;3.08;2.78;;;;;;;10.41;89.74;96734.75;5093959;28;20102;-82
2023/10/26 09:30:32;;;;;;;3.60;2.95;;;;;;;10.53;89.66;96740.38;5090537;28;20123;-81
2023/10/26 09:32:59;;;;;;;3.83;3.53;;;;;;;10.47;89.95;96732.78;5095391;28;20019;-82
2023/10/26 09:35:29;;;;;;;3.40;3.10;;;;;;;10.38;90.07;96723.88;5075710;28;20032;-82
2023/10/26 09:37:55;;;;;;;4.68;3.42;;;;;;;10.45;89.29;96722.41;5074323;28;20021;-82
2023/10/26 09:40:25;;;;;;;3.20;2.90;;;;;;;10.62;89.56;96731.66;5082320;28;20042;-82
2023/10/26 09:42:51;;;;;;;3.72;3.33;;;;;;;10.64;89.68;96742.84;5092504;28;20035;-82
2023/10/26 09:45:21;;;;;;;3.83;2.80;;;;;;;10.65;89.09;96739.06;5093869;28;20119;-82
2023/10/26 09:47:46;;;;;;;5.50;3.15;;;;;;;10.72;89.16;96742.13;5069725;28;20021;-81
2023/10/26 09:50:13;;;;;;;3.80;3.35;;;;;;;10.72;89.39;96739.44;5087305;28;20035;-82
2023/10/26 09:52:41;;;;;;;3.15;2.85;;;;;;;10.77;89.57;96740.09;5093500;28;20035;-82
2023/10/26 09:55:07;;;;;;;3.53;3.08;;;;;;;10.83;89.24;96730.94;5095654;28;20039;-82
2023/10/26 09:57:35;;;;;;;5.03;3.05;;;;;;;11.00;88.53;96746.28;5077105;28;20741;-82
2023/10/26 10:00:07;;;;;;;3.25;2.78;;;;;;;11.06;88.04;96740.53;5086495;28;20047;-82
2023/10/26 10:02:32;;;;;;;4.20;3.80;;;;;;;11.05;89.19;96757.63;5092887;28;20020;-82
2023/10/26 10:04:57;;;;;;;3.20;2.90;;;;;;;11.13;88.12;96754.25;5092310;28;20043;-82
2023/10/26 10:07:43;;;;;;;4.85;2.92;;;;;;;11.18;88.66;96764.78;5066920;28;20103;-82
2023/10/26 10:10:13;;;;;;;6.47;2.50;;;;;;;11.20;88.65;96759.16;5083409;28;20476;-82
2023/10/26 10:12:39;;;;;;;3.35;3.05;;;;;;;11.17;88.55;96757.88;5086460;28;20027;-82
2023/10/26 10:15:15;;;;;;;4.18;3.38;;;;;;;11.16;88.59;96766.97;5065190;28;20035;-83
2023/10/26 10:17:44;;;;;;;3.30;3.00;;;;;;;11.21;88.19;96776.75;5092004;28;20110;-82
2023/10/26 10:20:16;;;;;;;4.90;3.15;;;;;;;11.19;88.23;96778.94;5084498;28;20474;-83
2023/10/26 10:22:45;;;;;;;3.70;2.40;;;;;;;11.20;88.24;96783.19;5083511;28;20032;-82
2023/10/26 10:25:12;;;;;;;3.55;2.90;;;;;;;11.21;87.94;96779.41;5086818;28;20049;-82
2023/10/26 10:27:38;;;;;;;12.98;3.63;;;;;;;11.19;88.11;96781.59;5081406;28;20032;-82
2023/10/26 10:30:08;;;;;;;3.72;3.42;;;;;;;11.13;88.03;96770.25;5082992;28;20082;-82
2023/10/26 10:32:53;;;;;;;2.90;2.65;;;;;;;11.20;88.27;96781.28;5087108;28;20074;-82
2023/10/26 10:35:21;;;;;;;6.25;2.67;;;;;;;11.32;87.42;96770.06;5087319;28;20020;-82
2023/10/26 10:38:12;;;;;;;3.13;2.83;;;;;;;11.34;87.72;96783.91;5087749;28;20051;-81
2023/10/26 10:40:39;;;;;;;3.97;2.80;;;;;;;11.37;87.20;96780.66;5094412;28;20048;-82
2023/10/26 10:43:05;;;;;;;3.58;2.72;;;;;;;11.35;87.41;96761.47;5093668;28;20031;-82
2023/10/26 10:45:31;;;;;;;2.78;2.38;;;;;;;11.37;87.24;96769.97;5067464;28;20043;-82
2023/10/26 10:47:56;;;;;;;2.65;2.38;;;;;;;11.39;87.09;96775.78;5080206;28;20540;-82
2023/10/26 10:50:26;;;;;;;2.78;2.47;;;;;;;11.36;87.12;96776.38;5054578;28;20020;-82
2023/10/26 10:52:56;;;;;;;3.53;3.22;;;;;;;11.35;87.50;96774.03;5074510;28;20113;-82
2023/10/26 10:55:25;;;;;;;4.18;2.70;;;;;;;11.41;87.18;96784.28;5091904;28;20042;-82
2023/10/26 10:57:58;;;;;;;4.38;3.40;;;;;;;11.50;86.62;96792.34;5088944;28;20379;-82
2023/10/26 11:00:25;;;;;;;2.83;2.53;;;;;;;11.42;86.63;96779.72;5070632;28;20169;-81
2023/10/26 11:02:56;;;;;;;3.13;2.70;;;;;;;11.47;87.02;96783.06;5070905;28;20067;-82
2023/10/26 11:05:33;;;;;;;3.85;2.75;;;;;;;11.46;86.90;96783.38;5082706;28;20028;-82
2023/10/26 11:07:59;;;;;;;3.28;2.58;;;;;;;11.48;86.79;96787.31;5083563;28;20028;-82
2023/10/26 11:10:24;;;;;;;3.03;2.72;;;;;;;11.48;86.73;96786.53;5097788;28;20024;-82
2023/10/26 11:12:50;;;;;;;3.38;2.78;;;;;;;11.45;87.02;96787.91;5065101;28;20039;-81
2023/10/26 11:15:16;;;;;;;3.90;2.55;;;;;;;11.41;86.86;96786.94;5101564;28;20040;-81
2023/10/26 11:17:41;;;;;;;3.33;2.58;;;;;;;11.22;87.53;96787.13;5078826;28;20112;-82
2023/10/26 11:20:37;;;;;;;2.95;2.75;;;;;;;11.37;87.09;96796.66;5085441;28;20024;-81
2023/10/26 11:23:06;;;;;;;4.85;3.70;;;;;;;11.16;87.57;96780.31;5086669;28;20028;-82
2023/10/26 11:25:32;;;;;;;5.40;3.08;;;;;;;11.20;88.37;96791.19;5080875;28;20056;-82
2023/10/26 11:27:57;;;;;;;3.65;2.78;;;;;;;11.24;87.59;96773.47;5082219;28;20105;-82
2023/10/26 11:30:23;;;;;;;5.10;2.75;;;;;;;11.38;86.99;96779.53;5068353;28;20048;-82